sensor_id;sensor_type;location;lat;lon;timestamp;P1;durP1;ratioP1;P2;durP2;ratioP2
12846;SDS011;6492;48.128;8.320;2023-08-21T00:03:53;10.20;;;9.30;;
12846;SDS011;6492;48.128;8.320;2023-08-21T00:07:55;8.85;;;8.05;;
12846;SDS011;6492;48.128;8.320;2023-08-21T00:11:58;11.95;;;10.80;;
12846;SDS011;6492;48.128;8.320;2023-08-21T00:16:00;11.35;;;10.18;;
12846;SDS011;6492;48.128;8.320;2023-08-21T00:20:02;11.75;;;10.30;;
12846;SDS011;6492;48.128;8.320;2023-08-21T00:24:04;11.95;;;10.65;;
12846;SDS011;6492;48.128;8.320;2023-08-21T00:28:08;12.15;;;10.55;;
12846;SDS011;6492;48.128;8.320;2023-08-21T00:32:09;10.73;;;9.73;;
12846;SDS011;6492;48.128;8.320;2023-08-21T00:36:12;10.82;;;9.57;;
12846;SDS011;6492;48.128;8.320;2023-08-21T00:40:14;10.90;;;9.80;;
12846;SDS011;6492;48.128;8.320;2023-08-21T00:44:17;11.82;;;9.80;;
12846;SDS011;6492;48.128;8.320;2023-08-21T00:48:19;10.55;;;9.45;;
12846;SDS011;6492;48.128;8.320;2023-08-21T00:52:21;10.45;;;9.43;;
12846;SDS011;6492;48.128;8.320;2023-08-21T00:56:23;10.05;;;9.05;;
12846;SDS011;6492;48.128;8.320;2023-08-21T01:00:27;11.07;;;10.07;;
12846;SDS011;6492;48.128;8.320;2023-08-21T01:04:29;11.20;;;9.93;;
12846;SDS011;6492;48.128;8.320;2023-08-21T01:08:34;11.43;;;9.93;;
12846;SDS011;6492;48.128;8.320;2023-08-21T01:12:45;11.63;;;9.82;;
12846;SDS011;6492;48.128;8.320;2023-08-21T01:16:54;10.40;;;9.30;;
12846;SDS011;6492;48.128;8.320;2023-08-21T01:21:01;10.20;;;9.20;;
12846;SDS011;6492;48.128;8.320;2023-08-21T01:25:06;10.77;;;9.60;;
12846;SDS011;6492;48.128;8.320;2023-08-21T01:29:08;9.88;;;8.90;;
12846;SDS011;6492;48.128;8.320;2023-08-21T01:33:10;9.50;;;8.60;;
12846;SDS011;6492;48.128;8.320;2023-08-21T01:37:16;9.77;;;8.95;;
12846;SDS011;6492;48.128;8.320;2023-08-21T01:41:20;11.18;;;10.02;;
12846;SDS011;6492;48.128;8.320;2023-08-21T01:45:24;11.55;;;8.98;;
12846;SDS011;6492;48.128;8.320;2023-08-21T01:49:27;13.30;;;9.43;;
12846;SDS011;6492;48.128;8.320;2023-08-21T01:53:29;10.07;;;9.07;;
12846;SDS011;6492;48.128;8.320;2023-08-21T01:57:32;10.70;;;9.65;;
12846;SDS011;6492;48.128;8.320;2023-08-21T02:01:34;10.38;;;9.45;;
12846;SDS011;6492;48.128;8.320;2023-08-21T02:05:38;10.80;;;9.70;;
12846;SDS011;6492;48.128;8.320;2023-08-21T02:09:41;11.20;;;10.15;;
12846;SDS011;6492;48.128;8.320;2023-08-21T02:13:44;10.80;;;9.60;;
12846;SDS011;6492;48.128;8.320;2023-08-21T02:17:46;11.43;;;10.32;;
12846;SDS011;6492;48.128;8.320;2023-08-21T02:21:48;10.75;;;9.75;;
12846;SDS011;6492;48.128;8.320;2023-08-21T02:25:49;10.43;;;9.38;;
12846;SDS011;6492;48.128;8.320;2023-08-21T02:29:53;10.90;;;9.80;;
12846;SDS011;6492;48.128;8.320;2023-08-21T02:33:55;13.38;;;10.02;;
12846;SDS011;6492;48.128;8.320;2023-08-21T02:37:56;13.70;;;9.82;;
12846;SDS011;6492;48.128;8.320;2023-08-21T02:41:58;13.95;;;9.82;;
12846;SDS011;6492;48.128;8.320;2023-08-21T02:46:01;14.20;;;10.82;;
12846;SDS011;6492;48.128;8.320;2023-08-21T02:50:03;11.00;;;9.80;;
12846;SDS011;6492;48.128;8.320;2023-08-21T02:54:06;11.77;;;10.52;;
12846;SDS011;6492;48.128;8.320;2023-08-21T03:02:20;11.77;;;10.50;;
12846;SDS011;6492;48.128;8.320;2023-08-21T03:06:22;10.93;;;9.80;;
12846;SDS011;6492;48.128;8.320;2023-08-21T03:10:24;12.07;;;10.20;;
12846;SDS011;6492;48.128;8.320;2023-08-21T03:14:27;10.60;;;9.50;;
12846;SDS011;6492;48.128;8.320;2023-08-21T03:18:30;10.50;;;9.48;;
12846;SDS011;6492;48.128;8.320;2023-08-21T03:22:33;9.80;;;8.90;;
12846;SDS011;6492;48.128;8.320;2023-08-21T03:26:34;8.50;;;7.75;;
12846;SDS011;6492;48.128;8.320;2023-08-21T03:30:38;8.30;;;7.60;;
12846;SDS011;6492;48.128;8.320;2023-08-21T03:34:41;9.88;;;8.98;;
12846;SDS011;6492;48.128;8.320;2023-08-21T03:38:43;10.15;;;9.23;;
12846;SDS011;6492;48.128;8.320;2023-08-21T03:42:45;9.98;;;9.05;;
12846;SDS011;6492;48.128;8.320;2023-08-21T03:46:47;12.00;;;10.48;;
12846;SDS011;6492;48.128;8.320;2023-08-21T03:50:50;9.23;;;8.43;;
12846;SDS011;6492;48.128;8.320;2023-08-21T03:54:52;11.13;;;10.10;;
12846;SDS011;6492;48.128;8.320;2023-08-21T03:58:54;9.35;;;8.48;;
12846;SDS011;6492;48.128;8.320;2023-08-21T04:02:57;9.85;;;8.90;;
12846;SDS011;6492;48.128;8.320;2023-08-21T04:07:00;9.88;;;8.98;;
12846;SDS011;6492;48.128;8.320;2023-08-21T04:11:02;9.23;;;8.32;;
12846;SDS011;6492;48.128;8.320;2023-08-21T04:15:04;9.73;;;8.73;;
12846;SDS011;6492;48.128;8.320;2023-08-21T04:19:06;8.90;;;8.10;;
12846;SDS011;6492;48.128;8.320;2023-08-21T04:23:10;9.48;;;8.57;;
12846;SDS011;6492;48.128;8.320;2023-08-21T04:27:11;9.27;;;8.38;;
12846;SDS011;6492;48.128;8.320;2023-08-21T04:31:13;9.00;;;8.20;;
12846;SDS011;6492;48.128;8.320;2023-08-21T04:35:17;10.85;;;9.75;;
12846;SDS011;6492;48.128;8.320;2023-08-21T04:39:20;10.55;;;9.48;;
12846;SDS011;6492;48.128;8.320;2023-08-21T04:43:22;9.90;;;9.00;;
12846;SDS011;6492;48.128;8.320;2023-08-21T04:47:25;10.90;;;9.80;;
12846;SDS011;6492;48.128;8.320;2023-08-21T04:51:29;10.20;;;9.30;;
12846;SDS011;6492;48.128;8.320;2023-08-21T04:55:32;10.07;;;9.25;;
12846;SDS011;6492;48.128;8.320;2023-08-21T04:59:34;10.60;;;9.65;;
12846;SDS011;6492;48.128;8.320;2023-08-21T05:03:36;11.35;;;9.95;;
12846;SDS011;6492;48.128;8.320;2023-08-21T05:07:38;11.95;;;10.80;;
12846;SDS011;6492;48.128;8.320;2023-08-21T05:11:41;10.65;;;9.65;;
12846;SDS011;6492;48.128;8.320;2023-08-21T05:15:43;11.90;;;10.80;;
12846;SDS011;6492;48.128;8.320;2023-08-21T05:19:45;11.68;;;10.50;;
12846;SDS011;6492;48.128;8.320;2023-08-21T05:23:47;11.50;;;10.30;;
12846;SDS011;6492;48.128;8.320;2023-08-21T05:27:50;12.63;;;11.32;;
12846;SDS011;6492;48.128;8.320;2023-08-21T05:31:52;12.90;;;11.43;;
12846;SDS011;6492;48.128;8.320;2023-08-21T05:35:53;12.55;;;11.25;;
12846;SDS011;6492;48.128;8.320;2023-08-21T05:39:57;13.05;;;11.70;;
12846;SDS011;6492;48.128;8.320;2023-08-21T05:44:00;12.85;;;11.65;;
12846;SDS011;6492;48.128;8.320;2023-08-21T05:48:02;13.40;;;11.88;;
12846;SDS011;6492;48.128;8.320;2023-08-21T05:52:06;12.65;;;11.38;;
12846;SDS011;6492;48.128;8.320;2023-08-21T05:56:08;12.45;;;11.35;;
12846;SDS011;6492;48.128;8.320;2023-08-21T06:00:12;12.80;;;11.60;;
12846;SDS011;6492;48.128;8.320;2023-08-21T06:04:14;13.30;;;11.98;;
12846;SDS011;6492;48.128;8.320;2023-08-21T06:08:18;12.88;;;11.63;;
12846;SDS011;6492;48.128;8.320;2023-08-21T06:12:20;12.63;;;11.32;;
12846;SDS011;6492;48.128;8.320;2023-08-21T06:16:23;12.70;;;11.48;;
12846;SDS011;6492;48.128;8.320;2023-08-21T06:20:25;13.70;;;11.55;;
12846;SDS011;6492;48.128;8.320;2023-08-21T06:24:27;14.50;;;12.93;;
12846;SDS011;6492;48.128;8.320;2023-08-21T06:28:29;12.82;;;11.52;;
12846;SDS011;6492;48.128;8.320;2023-08-21T06:32:34;11.80;;;10.73;;
12846;SDS011;6492;48.128;8.320;2023-08-21T06:36:36;12.77;;;11.52;;
12846;SDS011;6492;48.128;8.320;2023-08-21T06:40:40;11.75;;;10.77;;
12846;SDS011;6492;48.128;8.320;2023-08-21T06:44:42;12.63;;;11.45;;
12846;SDS011;6492;48.128;8.320;2023-08-21T06:48:45;13.10;;;12.00;;
12846;SDS011;6492;48.128;8.320;2023-08-21T06:52:47;12.00;;;10.90;;
12846;SDS011;6492;48.128;8.320;2023-08-21T06:56:48;12.10;;;10.90;;
12846;SDS011;6492;48.128;8.320;2023-08-21T07:00:50;11.32;;;10.23;;
12846;SDS011;6492;48.128;8.320;2023-08-21T07:04:55;11.30;;;10.20;;
12846;SDS011;6492;48.128;8.320;2023-08-21T07:08:57;10.70;;;9.65;;
12846;SDS011;6492;48.128;8.320;2023-08-21T07:12:59;10.52;;;9.65;;
12846;SDS011;6492;48.128;8.320;2023-08-21T07:17:01;13.48;;;10.00;;
12846;SDS011;6492;48.128;8.320;2023-08-21T07:21:07;11.40;;;9.75;;
12846;SDS011;6492;48.128;8.320;2023-08-21T07:25:08;10.38;;;9.30;;
12846;SDS011;6492;48.128;8.320;2023-08-21T07:29:10;12.35;;;9.52;;
12846;SDS011;6492;48.128;8.320;2023-08-21T07:33:12;9.93;;;8.25;;
12846;SDS011;6492;48.128;8.320;2023-08-21T07:37:15;9.23;;;8.35;;
12846;SDS011;6492;48.128;8.320;2023-08-21T07:41:21;9.35;;;8.18;;
12846;SDS011;6492;48.128;8.320;2023-08-21T07:45:23;10.98;;;8.55;;
12846;SDS011;6492;48.128;8.320;2023-08-21T07:49:25;8.60;;;7.90;;
12846;SDS011;6492;48.128;8.320;2023-08-21T07:53:29;8.38;;;7.68;;
12846;SDS011;6492;48.128;8.320;2023-08-21T07:57:33;7.82;;;7.10;;
12846;SDS011;6492;48.128;8.320;2023-08-21T08:01:35;7.22;;;6.63;;
12846;SDS011;6492;48.128;8.320;2023-08-21T08:05:37;7.05;;;6.35;;
12846;SDS011;6492;48.128;8.320;2023-08-21T08:09:40;7.47;;;6.78;;
12846;SDS011;6492;48.128;8.320;2023-08-21T08:13:42;7.22;;;6.63;;
12846;SDS011;6492;48.128;8.320;2023-08-21T08:17:44;7.55;;;6.72;;
12846;SDS011;6492;48.128;8.320;2023-08-21T08:21:46;6.70;;;6.10;;
12846;SDS011;6492;48.128;8.320;2023-08-21T08:25:49;7.30;;;6.65;;
12846;SDS011;6492;48.128;8.320;2023-08-21T08:29:51;7.47;;;6.88;;
12846;SDS011;6492;48.128;8.320;2023-08-21T08:33:53;7.15;;;6.55;;
12846;SDS011;6492;48.128;8.320;2023-08-21T08:37:55;8.13;;;6.60;;
12846;SDS011;6492;48.128;8.320;2023-08-21T08:42:01;7.15;;;6.47;;
12846;SDS011;6492;48.128;8.320;2023-08-21T08:46:06;7.50;;;6.70;;
12846;SDS011;6492;48.128;8.320;2023-08-21T08:50:10;7.57;;;6.95;;
12846;SDS011;6492;48.128;8.320;2023-08-21T08:54:12;7.45;;;6.75;;
12846;SDS011;6492;48.128;8.320;2023-08-21T08:58:16;6.90;;;6.30;;
12846;SDS011;6492;48.128;8.320;2023-08-21T09:02:17;7.72;;;7.13;;
12846;SDS011;6492;48.128;8.320;2023-08-21T09:06:19;8.40;;;7.13;;
12846;SDS011;6492;48.128;8.320;2023-08-21T09:10:21;8.15;;;7.35;;
12846;SDS011;6492;48.128;8.320;2023-08-21T09:14:29;7.97;;;7.22;;
12846;SDS011;6492;48.128;8.320;2023-08-21T09:18:33;7.28;;;6.68;;
12846;SDS011;6492;48.128;8.320;2023-08-21T09:22:35;7.80;;;7.13;;
12846;SDS011;6492;48.128;8.320;2023-08-21T09:26:37;7.05;;;6.53;;
12846;SDS011;6492;48.128;8.320;2023-08-21T09:30:48;7.80;;;7.10;;
12846;SDS011;6492;48.128;8.320;2023-08-21T09:34:50;7.85;;;7.15;;
12846;SDS011;6492;48.128;8.320;2023-08-21T09:38:52;9.43;;;8.70;;
12846;SDS011;6492;48.128;8.320;2023-08-21T09:42:55;8.25;;;7.57;;
12846;SDS011;6492;48.128;8.320;2023-08-21T09:46:59;7.65;;;7.00;;
12846;SDS011;6492;48.128;8.320;2023-08-21T09:51:00;8.02;;;7.32;;
12846;SDS011;6492;48.128;8.320;2023-08-21T09:55:04;7.57;;;6.90;;
12846;SDS011;6492;48.128;8.320;2023-08-21T09:59:06;8.13;;;7.53;;
12846;SDS011;6492;48.128;8.320;2023-08-21T10:03:16;7.82;;;7.13;;
12846;SDS011;6492;48.128;8.320;2023-08-21T10:07:22;7.88;;;6.88;;
12846;SDS011;6492;48.128;8.320;2023-08-21T10:11:28;8.10;;;7.25;;
12846;SDS011;6492;48.128;8.320;2023-08-21T10:15:30;8.60;;;7.10;;
12846;SDS011;6492;48.128;8.320;2023-08-21T10:19:35;7.28;;;6.57;;
12846;SDS011;6492;48.128;8.320;2023-08-21T10:23:37;7.93;;;7.22;;
12846;SDS011;6492;48.128;8.320;2023-08-21T10:27:40;7.18;;;6.57;;
12846;SDS011;6492;48.128;8.320;2023-08-21T10:31:43;7.22;;;6.60;;
12846;SDS011;6492;48.128;8.320;2023-08-21T10:35:46;7.28;;;6.57;;
12846;SDS011;6492;48.128;8.320;2023-08-21T10:39:57;7.20;;;6.53;;
12846;SDS011;6492;48.128;8.320;2023-08-21T10:43:59;7.20;;;6.47;;
12846;SDS011;6492;48.128;8.320;2023-08-21T10:48:02;8.02;;;7.32;;
12846;SDS011;6492;48.128;8.320;2023-08-21T10:52:05;8.38;;;6.50;;
12846;SDS011;6492;48.128;8.320;2023-08-21T10:56:12;8.07;;;7.38;;
12846;SDS011;6492;48.128;8.320;2023-08-21T11:00:14;7.82;;;7.20;;
12846;SDS011;6492;48.128;8.320;2023-08-21T11:04:17;8.52;;;7.63;;
12846;SDS011;6492;48.128;8.320;2023-08-21T11:08:21;8.13;;;7.35;;
12846;SDS011;6492;48.128;8.320;2023-08-21T11:12:24;8.00;;;7.30;;
12846;SDS011;6492;48.128;8.320;2023-08-21T11:16:32;9.00;;;7.60;;
12846;SDS011;6492;48.128;8.320;2023-08-21T11:20:34;8.30;;;7.50;;
12846;SDS011;6492;48.128;8.320;2023-08-21T11:24:42;8.85;;;7.75;;
12846;SDS011;6492;48.128;8.320;2023-08-21T11:28:45;8.48;;;7.43;;
12846;SDS011;6492;48.128;8.320;2023-08-21T11:32:47;7.25;;;6.65;;
12846;SDS011;6492;48.128;8.320;2023-08-21T11:36:50;7.93;;;7.22;;
12846;SDS011;6492;48.128;8.320;2023-08-21T11:40:54;7.38;;;6.78;;
12846;SDS011;6492;48.128;8.320;2023-08-21T11:44:59;8.05;;;7.25;;
12846;SDS011;6492;48.128;8.320;2023-08-21T11:49:02;7.43;;;6.72;;
12846;SDS011;6492;48.128;8.320;2023-08-21T11:57:13;8.05;;;7.30;;
12846;SDS011;6492;48.128;8.320;2023-08-21T12:01:16;8.18;;;7.40;;
12846;SDS011;6492;48.128;8.320;2023-08-21T12:05:18;8.48;;;7.38;;
12846;SDS011;6492;48.128;8.320;2023-08-21T12:09:21;8.63;;;7.10;;
12846;SDS011;6492;48.128;8.320;2023-08-21T12:13:25;7.88;;;7.07;;
12846;SDS011;6492;48.128;8.320;2023-08-21T12:17:26;7.85;;;7.10;;
12846;SDS011;6492;48.128;8.320;2023-08-21T12:21:28;9.73;;;7.32;;
12846;SDS011;6492;48.128;8.320;2023-08-21T12:25:32;7.50;;;6.90;;
12846;SDS011;6492;48.128;8.320;2023-08-21T12:29:36;7.85;;;7.10;;
12846;SDS011;6492;48.128;8.320;2023-08-21T12:33:38;7.75;;;7.03;;
12846;SDS011;6492;48.128;8.320;2023-08-21T12:37:39;7.10;;;6.40;;
12846;SDS011;6492;48.128;8.320;2023-08-21T12:41:41;7.70;;;6.97;;
12846;SDS011;6492;48.128;8.320;2023-08-21T12:45:44;7.72;;;6.82;;
12846;SDS011;6492;48.128;8.320;2023-08-21T12:49:47;7.53;;;6.93;;
12846;SDS011;6492;48.128;8.320;2023-08-21T12:53:49;8.02;;;7.22;;
12846;SDS011;6492;48.128;8.320;2023-08-21T12:57:52;7.40;;;6.78;;
12846;SDS011;6492;48.128;8.320;2023-08-21T13:01:55;7.88;;;7.28;;
12846;SDS011;6492;48.128;8.320;2023-08-21T13:05:57;7.28;;;6.68;;
12846;SDS011;6492;48.128;8.320;2023-08-21T13:10:00;6.65;;;6.13;;
12846;SDS011;6492;48.128;8.320;2023-08-21T13:14:02;7.20;;;6.60;;
12846;SDS011;6492;48.128;8.320;2023-08-21T13:18:05;7.35;;;6.72;;
12846;SDS011;6492;48.128;8.320;2023-08-21T13:22:07;7.22;;;6.72;;
12846;SDS011;6492;48.128;8.320;2023-08-21T13:26:09;8.07;;;7.38;;
12846;SDS011;6492;48.128;8.320;2023-08-21T13:30:11;8.05;;;7.40;;
12846;SDS011;6492;48.128;8.320;2023-08-21T13:34:15;7.57;;;6.97;;
12846;SDS011;6492;48.128;8.320;2023-08-21T13:38:17;8.30;;;7.50;;
12846;SDS011;6492;48.128;8.320;2023-08-21T13:42:19;8.02;;;7.35;;
12846;SDS011;6492;48.128;8.320;2023-08-21T13:46:21;7.88;;;7.18;;
12846;SDS011;6492;48.128;8.320;2023-08-21T13:50:24;8.23;;;7.63;;
12846;SDS011;6492;48.128;8.320;2023-08-21T13:54:26;7.80;;;7.10;;
12846;SDS011;6492;48.128;8.320;2023-08-21T13:58:29;7.70;;;7.10;;
12846;SDS011;6492;48.128;8.320;2023-08-21T14:02:31;8.05;;;7.25;;
12846;SDS011;6492;48.128;8.320;2023-08-21T14:06:34;7.93;;;7.22;;
12846;SDS011;6492;48.128;8.320;2023-08-21T14:10:36;9.80;;;7.30;;
12846;SDS011;6492;48.128;8.320;2023-08-21T14:14:39;9.38;;;7.68;;
12846;SDS011;6492;48.128;8.320;2023-08-21T14:18:41;8.60;;;7.80;;
12846;SDS011;6492;48.128;8.320;2023-08-21T14:22:44;7.90;;;7.20;;
12846;SDS011;6492;48.128;8.320;2023-08-21T14:26:46;8.43;;;7.68;;
12846;SDS011;6492;48.128;8.320;2023-08-21T14:30:48;8.68;;;7.88;;
12846;SDS011;6492;48.128;8.320;2023-08-21T14:34:52;8.50;;;7.80;;
12846;SDS011;6492;48.128;8.320;2023-08-21T14:38:55;8.27;;;7.20;;
12846;SDS011;6492;48.128;8.320;2023-08-21T14:42:57;7.97;;;7.35;;
12846;SDS011;6492;48.128;8.320;2023-08-21T14:46:59;8.23;;;7.50;;
12846;SDS011;6492;48.128;8.320;2023-08-21T14:51:01;8.00;;;7.40;;
12846;SDS011;6492;48.128;8.320;2023-08-21T14:55:04;8.30;;;7.50;;
12846;SDS011;6492;48.128;8.320;2023-08-21T14:59:06;8.40;;;7.43;;
12846;SDS011;6492;48.128;8.320;2023-08-21T15:03:10;8.70;;;7.82;;
12846;SDS011;6492;48.128;8.320;2023-08-21T15:07:12;8.10;;;7.35;;
12846;SDS011;6492;48.128;8.320;2023-08-21T15:11:15;8.02;;;7.28;;
12846;SDS011;6492;48.128;8.320;2023-08-21T15:15:17;7.47;;;6.88;;
12846;SDS011;6492;48.128;8.320;2023-08-21T15:19:20;7.75;;;6.95;;
12846;SDS011;6492;48.128;8.320;2023-08-21T15:23:22;8.10;;;7.45;;
12846;SDS011;6492;48.128;8.320;2023-08-21T15:27:27;7.95;;;7.25;;
12846;SDS011;6492;48.128;8.320;2023-08-21T15:31:29;7.38;;;6.68;;
12846;SDS011;6492;48.128;8.320;2023-08-21T15:35:31;7.72;;;6.95;;
12846;SDS011;6492;48.128;8.320;2023-08-21T15:39:33;7.30;;;6.70;;
12846;SDS011;6492;48.128;8.320;2023-08-21T15:43:36;7.85;;;7.00;;
12846;SDS011;6492;48.128;8.320;2023-08-21T15:47:38;7.60;;;6.93;;
12846;SDS011;6492;48.128;8.320;2023-08-21T15:51:43;7.50;;;6.90;;
12846;SDS011;6492;48.128;8.320;2023-08-21T15:55:47;7.47;;;6.82;;
12846;SDS011;6492;48.128;8.320;2023-08-21T15:59:51;8.23;;;7.38;;
12846;SDS011;6492;48.128;8.320;2023-08-21T16:03:56;7.72;;;6.82;;
12846;SDS011;6492;48.128;8.320;2023-08-21T16:08:00;8.43;;;7.00;;
12846;SDS011;6492;48.128;8.320;2023-08-21T16:12:02;8.35;;;7.07;;
12846;SDS011;6492;48.128;8.320;2023-08-21T16:16:06;8.35;;;7.55;;
12846;SDS011;6492;48.128;8.320;2023-08-21T16:20:08;8.93;;;6.63;;
12846;SDS011;6492;48.128;8.320;2023-08-21T16:24:10;7.43;;;6.82;;
12846;SDS011;6492;48.128;8.320;2023-08-21T16:28:12;7.82;;;7.03;;
12846;SDS011;6492;48.128;8.320;2023-08-21T16:32:16;7.90;;;7.15;;
12846;SDS011;6492;48.128;8.320;2023-08-21T16:36:18;7.38;;;6.78;;
12846;SDS011;6492;48.128;8.320;2023-08-21T16:40:19;7.80;;;6.93;;
12846;SDS011;6492;48.128;8.320;2023-08-21T16:44:23;6.93;;;6.43;;
12846;SDS011;6492;48.128;8.320;2023-08-21T16:48:26;7.38;;;6.68;;
12846;SDS011;6492;48.128;8.320;2023-08-21T16:52:28;7.10;;;6.50;;
12846;SDS011;6492;48.128;8.320;2023-08-21T16:56:36;8.27;;;6.70;;
12846;SDS011;6492;48.128;8.320;2023-08-21T17:00:38;6.70;;;6.20;;
12846;SDS011;6492;48.128;8.320;2023-08-21T17:04:41;7.63;;;6.20;;
12846;SDS011;6492;48.128;8.320;2023-08-21T17:08:45;7.78;;;6.53;;
12846;SDS011;6492;48.128;8.320;2023-08-21T17:12:47;7.28;;;6.35;;
12846;SDS011;6492;48.128;8.320;2023-08-21T17:16:49;6.70;;;6.10;;
12846;SDS011;6492;48.128;8.320;2023-08-21T17:20:52;7.22;;;6.65;;
12846;SDS011;6492;48.128;8.320;2023-08-21T17:24:54;7.00;;;6.40;;
12846;SDS011;6492;48.128;8.320;2023-08-21T17:28:56;7.15;;;6.47;;
12846;SDS011;6492;48.128;8.320;2023-08-21T17:32:57;6.68;;;6.18;;
12846;SDS011;6492;48.128;8.320;2023-08-21T17:37:01;8.60;;;6.38;;
12846;SDS011;6492;48.128;8.320;2023-08-21T17:41:02;7.03;;;6.30;;
12846;SDS011;6492;48.128;8.320;2023-08-21T17:45:10;7.07;;;6.40;;
12846;SDS011;6492;48.128;8.320;2023-08-21T17:49:11;7.25;;;6.55;;
12846;SDS011;6492;48.128;8.320;2023-08-21T17:53:15;7.00;;;6.30;;
12846;SDS011;6492;48.128;8.320;2023-08-21T17:57:18;7.05;;;6.45;;
12846;SDS011;6492;48.128;8.320;2023-08-21T18:01:19;6.60;;;6.00;;
12846;SDS011;6492;48.128;8.320;2023-08-21T18:05:21;7.63;;;6.65;;
12846;SDS011;6492;48.128;8.320;2023-08-21T18:09:25;7.55;;;6.35;;
12846;SDS011;6492;48.128;8.320;2023-08-21T18:13:27;7.80;;;7.00;;
12846;SDS011;6492;48.128;8.320;2023-08-21T18:17:29;7.00;;;6.40;;
12846;SDS011;6492;48.128;8.320;2023-08-21T18:21:31;7.10;;;6.50;;
12846;SDS011;6492;48.128;8.320;2023-08-21T18:25:34;7.32;;;6.70;;
12846;SDS011;6492;48.128;8.320;2023-08-21T18:29:35;8.05;;;7.25;;
12846;SDS011;6492;48.128;8.320;2023-08-21T18:33:39;9.35;;;7.10;;
12846;SDS011;6492;48.128;8.320;2023-08-21T18:37:41;7.68;;;6.97;;
12846;SDS011;6492;48.128;8.320;2023-08-21T18:41:45;7.55;;;6.65;;
12846;SDS011;6492;48.128;8.320;2023-08-21T18:45:46;7.55;;;6.85;;
12846;SDS011;6492;48.128;8.320;2023-08-21T18:49:51;6.75;;;6.10;;
12846;SDS011;6492;48.128;8.320;2023-08-21T18:54:04;7.00;;;6.30;;
12846;SDS011;6492;48.128;8.320;2023-08-21T18:58:14;9.65;;;7.05;;
12846;SDS011;6492;48.128;8.320;2023-08-21T19:02:17;8.45;;;6.80;;
12846;SDS011;6492;48.128;8.320;2023-08-21T19:06:32;7.93;;;7.13;;
12846;SDS011;6492;48.128;8.320;2023-08-21T19:15:08;7.57;;;6.65;;
12846;SDS011;6492;48.128;8.320;2023-08-21T19:19:11;8.15;;;7.35;;
12846;SDS011;6492;48.128;8.320;2023-08-21T19:23:21;7.88;;;6.95;;
12846;SDS011;6492;48.128;8.320;2023-08-21T19:27:23;7.97;;;7.18;;
12846;SDS011;6492;48.128;8.320;2023-08-21T19:31:33;8.23;;;7.53;;
12846;SDS011;6492;48.128;8.320;2023-08-21T19:35:35;7.20;;;6.50;;
12846;SDS011;6492;48.128;8.320;2023-08-21T19:39:37;7.70;;;7.00;;
12846;SDS011;6492;48.128;8.320;2023-08-21T19:43:40;8.15;;;7.35;;
12846;SDS011;6492;48.128;8.320;2023-08-21T19:47:44;8.35;;;7.63;;
12846;SDS011;6492;48.128;8.320;2023-08-21T19:51:48;9.43;;;7.05;;
12846;SDS011;6492;48.128;8.320;2023-08-21T19:55:50;7.45;;;6.63;;
12846;SDS011;6492;48.128;8.320;2023-08-21T19:59:54;7.15;;;6.45;;
12846;SDS011;6492;48.128;8.320;2023-08-21T20:03:57;7.22;;;6.53;;
12846;SDS011;6492;48.128;8.320;2023-08-21T20:08:00;6.93;;;6.32;;
12846;SDS011;6492;48.128;8.320;2023-08-21T20:16:09;7.55;;;5.68;;
12846;SDS011;6492;48.128;8.320;2023-08-21T20:20:17;5.70;;;5.30;;
12846;SDS011;6492;48.128;8.320;2023-08-21T20:24:19;7.07;;;6.45;;
12846;SDS011;6492;48.128;8.320;2023-08-21T20:28:24;8.15;;;7.05;;
12846;SDS011;6492;48.128;8.320;2023-08-21T20:32:27;8.00;;;7.13;;
12846;SDS011;6492;48.128;8.320;2023-08-21T20:36:30;8.18;;;7.38;;
12846;SDS011;6492;48.128;8.320;2023-08-21T20:40:32;6.82;;;6.32;;
12846;SDS011;6492;48.128;8.320;2023-08-21T20:44:40;9.30;;;8.40;;
12846;SDS011;6492;48.128;8.320;2023-08-21T20:48:41;10.32;;;7.82;;
12846;SDS011;6492;48.128;8.320;2023-08-21T20:52:44;8.27;;;7.50;;
12846;SDS011;6492;48.128;8.320;2023-08-21T20:56:47;7.35;;;6.75;;
12846;SDS011;6492;48.128;8.320;2023-08-21T21:00:49;7.32;;;6.68;;
12846;SDS011;6492;48.128;8.320;2023-08-21T21:04:51;8.30;;;7.50;;
12846;SDS011;6492;48.128;8.320;2023-08-21T21:08:55;7.32;;;6.63;;
12846;SDS011;6492;48.128;8.320;2023-08-21T21:12:56;9.70;;;7.82;;
12846;SDS011;6492;48.128;8.320;2023-08-21T21:16:58;9.07;;;8.15;;
12846;SDS011;6492;48.128;8.320;2023-08-21T21:21:00;9.98;;;8.05;;
12846;SDS011;6492;48.128;8.320;2023-08-21T21:25:04;7.95;;;7.25;;
12846;SDS011;6492;48.128;8.320;2023-08-21T21:29:06;10.88;;;8.27;;
12846;SDS011;6492;48.128;8.320;2023-08-21T21:33:08;8.45;;;7.65;;
12846;SDS011;6492;48.128;8.320;2023-08-21T21:37:10;7.78;;;7.03;;
12846;SDS011;6492;48.128;8.320;2023-08-21T21:41:13;8.88;;;7.40;;
12846;SDS011;6492;48.128;8.320;2023-08-21T21:45:15;12.55;;;10.43;;
12846;SDS011;6492;48.128;8.320;2023-08-21T21:49:18;14.70;;;11.27;;
12846;SDS011;6492;48.128;8.320;2023-08-21T21:53:22;14.88;;;12.25;;
12846;SDS011;6492;48.128;8.320;2023-08-21T21:57:27;9.45;;;8.45;;
12846;SDS011;6492;48.128;8.320;2023-08-21T22:01:29;8.70;;;7.82;;
12846;SDS011;6492;48.128;8.320;2023-08-21T22:05:31;10.13;;;9.13;;
12846;SDS011;6492;48.128;8.320;2023-08-21T22:09:33;9.18;;;7.72;;
12846;SDS011;6492;48.128;8.320;2023-08-21T22:13:36;9.73;;;8.15;;
12846;SDS011;6492;48.128;8.320;2023-08-21T22:17:44;10.00;;;8.73;;
12846;SDS011;6492;48.128;8.320;2023-08-21T22:21:46;9.65;;;8.65;;
12846;SDS011;6492;48.128;8.320;2023-08-21T22:25:47;8.63;;;7.93;;
12846;SDS011;6492;48.128;8.320;2023-08-21T22:29:51;7.82;;;7.15;;
12846;SDS011;6492;48.128;8.320;2023-08-21T22:33:52;7.75;;;6.95;;
12846;SDS011;6492;48.128;8.320;2023-08-21T22:37:54;8.82;;;7.88;;
12846;SDS011;6492;48.128;8.320;2023-08-21T22:41:56;8.07;;;7.30;;
12846;SDS011;6492;48.128;8.320;2023-08-21T22:46:00;11.35;;;9.18;;
12846;SDS011;6492;48.128;8.320;2023-08-21T22:50:05;9.45;;;8.55;;
12846;SDS011;6492;48.128;8.320;2023-08-21T22:54:07;8.77;;;7.88;;
12846;SDS011;6492;48.128;8.320;2023-08-21T22:58:09;8.77;;;7.97;;
12846;SDS011;6492;48.128;8.320;2023-08-21T23:02:12;9.85;;;8.80;;
12846;SDS011;6492;48.128;8.320;2023-08-21T23:06:14;10.48;;;9.35;;
12846;SDS011;6492;48.128;8.320;2023-08-21T23:10:17;9.20;;;8.30;;
12846;SDS011;6492;48.128;8.320;2023-08-21T23:14:19;9.45;;;8.55;;
12846;SDS011;6492;48.128;8.320;2023-08-21T23:18:22;8.95;;;8.05;;
12846;SDS011;6492;48.128;8.320;2023-08-21T23:22:24;9.38;;;8.43;;
12846;SDS011;6492;48.128;8.320;2023-08-21T23:26:26;10.05;;;8.95;;
12846;SDS011;6492;48.128;8.320;2023-08-21T23:30:28;8.48;;;7.68;;
12846;SDS011;6492;48.128;8.320;2023-08-21T23:34:31;8.13;;;7.32;;
12846;SDS011;6492;48.128;8.320;2023-08-21T23:38:33;11.90;;;10.15;;
12846;SDS011;6492;48.128;8.320;2023-08-21T23:42:35;10.70;;;9.63;;
12846;SDS011;6492;48.128;8.320;2023-08-21T23:46:37;9.70;;;8.73;;
12846;SDS011;6492;48.128;8.320;2023-08-21T23:50:40;9.45;;;8.50;;
12846;SDS011;6492;48.128;8.320;2023-08-21T23:54:42;8.32;;;7.63;;
12846;SDS011;6492;48.128;8.320;2023-08-21T23:58:44;8.73;;;7.93;;
